createdAt,value
2018-05-18T00:01:13.300Z,38.53
2018-05-18T00:03:41.710Z,37.50
2018-05-18T00:06:09.870Z,38.80
2018-05-18T00:08:38.145Z,42.17
2018-05-18T00:11:06.402Z,41.23
2018-05-18T00:13:34.654Z,39.03
2018-05-18T00:16:02.932Z,40.70
2018-05-18T00:18:31.216Z,42.20
2018-05-18T00:20:59.463Z,44.80
2018-05-18T00:23:27.727Z,43.87
2018-05-18T00:25:55.983Z,41.90
2018-05-18T00:28:24.260Z,40.70
2018-05-18T00:30:52.556Z,40.27
2018-05-18T00:33:20.827Z,41.10
2018-05-18T00:35:49.107Z,43.38
2018-05-18T00:38:17.380Z,42.90
2018-05-18T00:40:45.663Z,42.63
2018-05-18T00:43:13.936Z,41.10
2018-05-18T00:45:42.198Z,40.90
2018-05-18T00:48:10.459Z,39.57
2018-05-18T00:50:38.711Z,40.50
2018-05-18T00:53:06.977Z,37.63
2018-05-18T00:55:41.031Z,38.90
2018-05-18T00:58:09.327Z,38.10
2018-05-18T01:00:37.603Z,42.35
2018-05-18T01:03:05.869Z,37.70
2018-05-18T01:05:34.130Z,39.37
2018-05-18T01:08:02.386Z,42.73
2018-05-18T01:10:30.648Z,41.30
2018-05-18T01:12:58.922Z,40.23
2018-05-18T01:15:27.175Z,45.63
2018-05-18T01:17:55.447Z,45.55
2018-05-18T01:20:23.699Z,45.70
2018-05-18T01:22:51.965Z,46.67
2018-05-18T01:25:20.240Z,46.30
2018-05-18T01:27:48.507Z,45.30
2018-05-18T01:30:16.767Z,45.87
2018-05-18T01:32:45.035Z,46.30
2018-05-18T01:35:13.363Z,44.10
2018-05-18T01:37:41.627Z,41.67
2018-05-18T01:40:09.883Z,41.77
2018-05-18T01:42:38.202Z,39.20
2018-05-18T01:45:06.464Z,36.60
2018-05-18T01:47:34.730Z,37.30
2018-05-18T01:50:03.000Z,37.77
2018-05-18T01:52:31.267Z,36.33
2018-05-18T01:55:00.291Z,36.75
2018-05-18T01:57:28.559Z,37.73
2018-05-18T01:59:56.830Z,38.37
2018-05-18T02:02:25.089Z,39.17
2018-05-18T02:04:53.351Z,39.23
2018-05-18T02:07:21.611Z,44.23
2018-05-18T02:09:50.182Z,44.63
2018-05-18T02:12:18.436Z,42.60
2018-05-18T02:14:46.705Z,42.07
2018-05-18T02:17:14.967Z,40.50
2018-05-18T02:19:43.243Z,39.93
2018-05-18T02:22:11.494Z,41.20
2018-05-18T02:24:39.760Z,40.00
2018-05-18T02:27:08.015Z,40.53
2018-05-18T02:29:36.292Z,43.10
2018-05-18T02:32:04.564Z,40.97
2018-05-18T02:34:32.983Z,44.40
2018-05-18T02:37:01.222Z,43.20
2018-05-18T02:39:29.479Z,40.10
2018-05-18T02:41:57.754Z,40.00
2018-05-18T02:44:26.019Z,38.73
2018-05-18T02:46:54.270Z,38.43
2018-05-18T02:49:22.531Z,38.10
2018-05-18T02:51:50.786Z,34.87
2018-05-18T02:54:19.099Z,36.65
2018-05-18T02:56:48.087Z,36.60
2018-05-18T02:59:16.373Z,40.50
2018-05-18T03:01:44.629Z,42.53
2018-05-18T03:04:12.888Z,43.97
2018-05-18T03:06:41.139Z,41.10
2018-05-18T03:09:09.410Z,46.67
2018-05-18T03:11:37.680Z,45.93
2018-05-18T03:14:05.943Z,43.97
2018-05-18T03:16:34.192Z,41.70
2018-05-18T03:19:02.459Z,45.47
2018-05-18T03:21:30.710Z,44.83
2018-05-18T03:23:58.978Z,43.10
2018-05-18T03:26:27.339Z,37.73
2018-05-18T03:28:55.598Z,39.00
2018-05-18T03:31:23.854Z,39.03
2018-05-18T03:33:52.118Z,42.03
2018-05-18T03:36:21.134Z,41.73
2018-05-18T03:38:49.389Z,45.60
2018-05-18T03:41:17.651Z,42.73
2018-05-18T03:43:45.911Z,42.47
2018-05-18T03:46:14.175Z,43.57
2018-05-18T03:48:42.519Z,43.27
2018-05-18T03:51:10.715Z,45.50
2018-05-18T03:53:38.991Z,44.33
2018-05-18T03:56:07.259Z,46.97
2018-05-18T03:58:36.223Z,45.47
2018-05-18T04:01:04.490Z,45.63
2018-05-18T04:03:50.324Z,46.33
2018-05-18T04:06:36.198Z,46.30
2018-05-18T04:09:04.458Z,46.72
2018-05-18T04:11:33.423Z,51.60
2018-05-18T04:14:01.679Z,55.50
2018-05-18T04:16:29.957Z,50.63
2018-05-18T04:18:58.303Z,50.80
2018-05-18T04:21:26.580Z,45.80
2018-05-18T04:23:54.831Z,45.53
2018-05-18T04:26:23.112Z,47.53
2018-05-18T04:28:51.359Z,47.27
2018-05-18T04:31:19.632Z,47.67
2018-05-18T04:33:47.887Z,44.63
2018-05-18T04:36:16.155Z,44.70
2018-05-18T04:38:44.515Z,43.55
2018-05-18T04:41:12.768Z,43.40
2018-05-18T04:43:41.026Z,42.53
2018-05-18T04:46:09.294Z,40.00
2018-05-18T04:48:37.539Z,40.53
2018-05-18T04:51:05.907Z,40.90
2018-05-18T04:53:34.059Z,43.00
2018-05-18T04:56:02.323Z,41.00
2018-05-18T04:58:30.599Z,40.20
2018-05-18T05:00:58.875Z,39.50
2018-05-18T05:03:27.127Z,35.60
2018-05-18T05:05:55.404Z,35.77
2018-05-18T05:08:23.659Z,34.30
2018-05-18T05:10:51.934Z,34.80
2018-05-18T05:13:20.185Z,32.13
2018-05-18T05:15:48.474Z,27.73
2018-05-18T05:18:16.730Z,29.07
2018-05-18T05:20:44.998Z,29.42
2018-05-18T05:23:14.024Z,31.08
2018-05-18T05:25:42.297Z,30.20
2018-05-18T05:28:10.551Z,28.58
2018-05-18T05:30:38.815Z,30.20
2018-05-18T05:33:07.098Z,28.60
2018-05-18T05:35:35.367Z,28.00
2018-05-18T05:38:03.627Z,28.30
2018-05-18T05:40:31.890Z,29.30
2018-05-18T05:43:00.204Z,28.00
2018-05-18T05:45:28.469Z,29.07
2018-05-18T05:47:56.763Z,29.17
2018-05-18T05:50:25.027Z,28.58
2018-05-18T05:52:53.301Z,29.40
2018-05-18T05:55:21.551Z,30.20
2018-05-18T05:57:49.823Z,29.50
2018-05-18T06:00:18.088Z,30.03
2018-05-18T06:02:46.359Z,28.33
2018-05-18T06:05:14.702Z,26.63
2018-05-18T06:07:42.892Z,27.10
2018-05-18T06:10:11.147Z,26.87
2018-05-18T06:12:39.403Z,25.30
2018-05-18T06:15:07.671Z,25.33
2018-05-18T06:17:35.967Z,26.10
2018-05-18T06:20:04.223Z,24.30
2018-05-18T06:22:32.490Z,23.17
2018-05-18T06:25:00.801Z,23.97
2018-05-18T06:27:29.066Z,22.53
2018-05-18T06:29:57.331Z,22.80
2018-05-18T06:32:25.610Z,23.90
2018-05-18T06:34:54.622Z,23.55
2018-05-18T06:37:22.829Z,23.67
2018-05-18T06:39:51.077Z,21.90
2018-05-18T06:42:19.372Z,24.00
2018-05-18T06:44:47.615Z,24.67
2018-05-18T06:47:15.883Z,23.83
2018-05-18T06:49:44.139Z,22.73
2018-05-18T06:52:12.407Z,22.47
2018-05-18T06:54:40.678Z,21.67
2018-05-18T06:57:08.948Z,20.27
2018-05-18T06:59:37.215Z,19.80
2018-05-18T07:02:05.480Z,20.77
2018-05-18T07:04:33.734Z,19.30
2018-05-18T07:07:02.004Z,20.37
2018-05-18T07:09:30.279Z,21.97
2018-05-18T07:11:58.546Z,22.20
2018-05-18T07:14:26.812Z,19.97
2018-05-18T07:16:55.079Z,20.73
2018-05-18T07:19:23.337Z,18.83
2018-05-18T07:21:51.659Z,19.13
2018-05-18T07:24:19.929Z,16.00
2018-05-18T07:26:48.207Z,17.37
2018-05-18T07:29:16.462Z,18.83
2018-05-18T07:31:44.724Z,19.90
2018-05-18T07:34:13.038Z,22.73
2018-05-18T07:36:41.293Z,23.80
2018-05-18T07:39:09.563Z,24.17
2018-05-18T07:41:37.827Z,23.57
2018-05-18T07:44:06.088Z,25.23
2018-05-18T07:46:35.063Z,25.33
2018-05-18T07:49:03.326Z,26.60
2018-05-18T07:51:31.587Z,26.33
2018-05-18T07:53:59.854Z,26.80
2018-05-18T07:56:28.111Z,27.03
2018-05-18T07:58:56.375Z,26.87
2018-05-18T08:01:24.635Z,25.50
2018-05-18T08:03:52.890Z,25.43
2018-05-18T08:06:21.180Z,22.77
2018-05-18T08:08:49.454Z,22.50
2018-05-18T08:11:17.715Z,22.10
2018-05-18T08:13:45.996Z,20.67
2018-05-18T08:16:14.274Z,20.60
2018-05-18T08:18:42.550Z,19.95
2018-05-18T08:21:11.522Z,16.97
2018-05-18T08:23:41.543Z,17.80
2018-05-18T08:26:10.703Z,18.27
2018-05-18T08:28:58.667Z,17.33
2018-05-18T08:31:26.930Z,16.50
2018-05-18T08:33:55.199Z,16.58
2018-05-18T08:36:23.459Z,18.17
2018-05-18T08:38:51.735Z,18.20
2018-05-18T08:41:19.987Z,18.17
2018-05-18T08:43:48.254Z,18.25
2018-05-18T08:46:16.517Z,17.33
2018-05-18T08:48:44.774Z,16.97
2018-05-18T08:51:13.026Z,17.40
2018-05-18T08:53:41.294Z,17.95
2018-05-18T08:56:09.551Z,16.80
2018-05-18T08:58:37.822Z,16.00
2018-05-18T09:01:06.078Z,16.37
2018-05-18T09:03:34.355Z,15.83
2018-05-18T09:06:02.718Z,14.75
2018-05-18T09:08:30.984Z,14.65
2018-05-18T09:10:59.247Z,14.03
2018-05-18T09:13:27.512Z,14.67
2018-05-18T09:15:56.371Z,14.88
2018-05-18T09:18:24.639Z,14.82
2018-05-18T09:20:52.900Z,15.15
2018-05-18T09:23:21.175Z,14.23
2018-05-18T09:25:49.444Z,14.30
2018-05-18T09:28:17.694Z,13.90
2018-05-18T09:30:45.962Z,14.07
2018-05-18T09:33:14.215Z,13.60
2018-05-18T09:35:42.548Z,14.55
2018-05-18T09:38:11.126Z,13.98
2018-05-18T09:40:39.389Z,13.13
2018-05-18T09:43:07.637Z,13.87
2018-05-18T09:45:35.915Z,12.23
2018-05-18T09:48:04.183Z,12.98
2018-05-18T09:50:32.505Z,12.80
2018-05-18T09:53:00.760Z,11.20
2018-05-18T09:55:29.193Z,11.35
2018-05-18T09:57:58.151Z,12.37
2018-05-18T10:00:26.418Z,12.35
2018-05-18T10:02:54.683Z,12.80
2018-05-18T10:05:22.950Z,11.32
2018-05-18T10:07:51.213Z,11.80
2018-05-18T10:10:19.486Z,11.02
2018-05-18T10:12:47.743Z,11.00
2018-05-18T10:15:16.003Z,9.23
2018-05-18T10:17:44.254Z,10.32
2018-05-18T10:20:12.528Z,10.63
2018-05-18T10:22:40.795Z,10.67
2018-05-18T10:25:09.058Z,9.23
2018-05-18T10:27:37.319Z,10.35
2018-05-18T10:30:05.587Z,10.98
2018-05-18T10:32:33.848Z,11.80
2018-05-18T10:35:02.115Z,11.60
2018-05-18T10:37:30.380Z,11.68
2018-05-18T10:39:58.638Z,11.88
2018-05-18T10:42:26.891Z,11.73
2018-05-18T10:44:55.161Z,10.53
2018-05-18T10:47:23.406Z,9.82
2018-05-18T10:49:51.688Z,10.63
2018-05-18T10:52:19.954Z,10.87
2018-05-18T10:54:48.225Z,10.00
2018-05-18T10:57:16.487Z,11.10
2018-05-18T10:59:44.754Z,11.30
2018-05-18T11:02:13.015Z,10.30
2018-05-18T11:04:41.321Z,8.97
2018-05-18T11:07:09.583Z,9.35
2018-05-18T11:09:37.843Z,8.30
2018-05-18T11:12:06.107Z,7.22
2018-05-18T11:14:34.373Z,8.00
2018-05-18T11:17:02.640Z,7.10
2018-05-18T11:19:30.907Z,6.85
2018-05-18T11:21:59.179Z,7.90
2018-05-18T11:24:27.443Z,7.47
2018-05-18T11:26:55.703Z,9.27
2018-05-18T11:29:24.467Z,9.94
2018-05-18T11:31:52.748Z,10.05
2018-05-18T11:34:21.000Z,10.55
2018-05-18T11:36:49.259Z,9.70
2018-05-18T11:39:17.604Z,9.50
2018-05-18T11:41:45.879Z,10.10
2018-05-18T11:44:14.209Z,9.43
2018-05-18T11:46:42.398Z,9.07
2018-05-18T11:49:10.648Z,8.95
2018-05-18T11:51:38.926Z,9.43
2018-05-18T11:54:07.184Z,9.73
2018-05-18T11:56:35.459Z,9.20
2018-05-18T11:59:03.717Z,9.45
2018-05-18T12:01:31.984Z,8.30
2018-05-18T12:04:00.235Z,8.27
2018-05-18T12:06:28.503Z,7.33
2018-05-18T12:08:56.764Z,7.82
2018-05-18T12:11:25.027Z,7.03
2018-05-18T12:13:53.283Z,7.12
2018-05-18T12:16:21.543Z,7.77
2018-05-18T12:18:49.809Z,8.10
2018-05-18T12:21:18.071Z,8.02
2018-05-18T12:23:46.326Z,8.27
2018-05-18T12:26:14.629Z,7.77
2018-05-18T12:28:42.852Z,7.57
2018-05-18T12:31:11.118Z,7.32
2018-05-18T12:33:39.378Z,7.93
2018-05-18T12:36:07.646Z,9.07
2018-05-18T12:38:35.903Z,9.43
2018-05-18T12:41:04.889Z,9.38
2018-05-18T12:43:33.149Z,9.27
2018-05-18T12:46:01.420Z,8.32
2018-05-18T12:48:29.743Z,7.73
2018-05-18T12:50:58.025Z,7.50
2018-05-18T12:53:26.282Z,7.22
2018-05-18T12:55:54.531Z,8.00
2018-05-18T12:58:22.797Z,7.70
2018-05-18T13:00:51.047Z,8.27
2018-05-18T13:03:19.335Z,8.70
2018-05-18T13:05:47.592Z,8.40
2018-05-18T13:08:16.001Z,8.55
2018-05-18T13:10:44.200Z,8.30
2018-05-18T13:13:12.476Z,7.93
2018-05-18T13:15:40.726Z,7.77
2018-05-18T13:18:08.986Z,7.90
2018-05-18T13:20:37.240Z,6.95
2018-05-18T13:23:05.516Z,6.62
2018-05-18T13:25:33.762Z,6.47
2018-05-18T13:28:02.319Z,7.03
2018-05-18T13:30:30.573Z,7.62
2018-05-18T13:32:58.828Z,7.95
2018-05-18T13:35:27.091Z,7.65
2018-05-18T13:37:55.352Z,6.83
2018-05-18T13:40:23.601Z,7.87
2018-05-18T13:42:51.874Z,7.82
2018-05-18T13:45:20.126Z,7.10
2018-05-18T13:47:48.476Z,7.47
2018-05-18T13:50:16.729Z,7.00
2018-05-18T13:52:44.983Z,6.97
2018-05-18T13:55:13.247Z,6.30
2018-05-18T13:57:41.516Z,6.50
2018-05-18T14:00:09.762Z,6.93
2018-05-18T14:02:38.029Z,8.07
2018-05-18T14:05:06.280Z,7.68
2018-05-18T14:07:34.546Z,7.22
2018-05-18T14:10:02.850Z,7.33
2018-05-18T14:12:31.123Z,7.57
2018-05-18T14:14:59.374Z,7.25
2018-05-18T14:17:27.650Z,7.23
2018-05-18T14:19:55.898Z,7.33
2018-05-18T14:22:24.183Z,7.28
2018-05-18T14:24:52.453Z,7.30
2018-05-18T14:27:20.699Z,8.50
2018-05-18T14:29:48.964Z,8.57
2018-05-18T14:32:17.239Z,7.40
2018-05-18T14:34:45.513Z,8.27
2018-05-18T14:37:13.758Z,8.47
2018-05-18T14:39:42.028Z,7.87
2018-05-18T14:42:10.287Z,8.40
2018-05-18T14:44:38.551Z,7.62
2018-05-18T14:47:06.816Z,8.52
2018-05-18T14:49:35.075Z,8.30
2018-05-18T14:52:03.345Z,7.32
2018-05-18T14:54:31.619Z,8.63
2018-05-18T14:56:59.871Z,7.87
2018-05-18T14:59:28.138Z,7.50
2018-05-18T15:01:56.394Z,7.03
2018-05-18T15:04:24.662Z,6.45
2018-05-18T15:06:52.910Z,7.00
2018-05-18T15:09:21.171Z,7.13
2018-05-18T15:11:49.431Z,6.78
2018-05-18T15:14:18.406Z,7.92
2018-05-18T15:16:46.660Z,7.70
2018-05-18T15:19:14.919Z,7.23
2018-05-18T15:21:43.187Z,7.37
2018-05-18T15:24:11.446Z,8.38
2018-05-18T15:26:39.729Z,8.80
2018-05-18T15:29:08.005Z,7.70
2018-05-18T15:31:36.299Z,6.70
2018-05-18T15:34:04.555Z,7.15
2018-05-18T15:36:32.802Z,8.18
2018-05-18T15:39:01.075Z,7.90
2018-05-18T15:41:29.331Z,8.03
2018-05-18T15:43:57.663Z,7.82
2018-05-18T15:46:25.950Z,8.02
2018-05-18T15:48:54.227Z,7.00
2018-05-18T15:51:22.488Z,7.13
2018-05-18T15:53:50.752Z,6.22
2018-05-18T15:56:19.015Z,6.82
2018-05-18T15:58:47.287Z,6.72
2018-05-18T16:01:15.538Z,7.13
2018-05-18T16:03:43.804Z,7.25
2018-05-18T16:06:12.066Z,6.90
2018-05-18T16:08:40.342Z,6.93
2018-05-18T16:11:08.591Z,6.40
2018-05-18T16:13:36.832Z,6.13
2018-05-18T16:16:05.107Z,5.97
2018-05-18T16:18:33.366Z,5.95
2018-05-18T16:21:01.724Z,6.27
2018-05-18T16:23:29.951Z,5.85
2018-05-18T16:25:58.852Z,6.48
2018-05-18T16:28:27.871Z,6.30
2018-05-18T16:30:56.140Z,5.87
2018-05-18T16:33:24.440Z,6.23
2018-05-18T16:35:52.642Z,5.15
2018-05-18T16:38:20.918Z,5.68
2018-05-18T16:40:49.171Z,5.70
2018-05-18T16:43:17.423Z,5.15
2018-05-18T16:45:45.689Z,4.97
2018-05-18T16:48:13.934Z,4.40
2018-05-18T16:50:42.207Z,5.47
2018-05-18T16:53:10.518Z,5.00
2018-05-18T16:55:38.779Z,4.77
2018-05-18T16:58:07.036Z,4.57
2018-05-18T17:00:35.290Z,4.60
2018-05-18T17:03:04.666Z,4.80
2018-05-18T17:05:32.943Z,4.57
2018-05-18T17:08:01.198Z,4.17
2018-05-18T17:10:29.450Z,4.20
2018-05-18T17:12:57.708Z,3.90
2018-05-18T17:15:25.970Z,3.90
2018-05-18T17:17:55.464Z,4.07
2018-05-18T17:20:23.739Z,4.10
2018-05-18T17:22:51.986Z,4.10
2018-05-18T17:25:20.242Z,3.55
2018-05-18T17:27:48.504Z,3.90
2018-05-18T17:30:17.522Z,3.70
2018-05-18T17:32:45.771Z,4.00
2018-05-18T17:35:14.039Z,3.57
2018-05-18T17:37:42.283Z,3.80
2018-05-18T17:40:10.546Z,3.93
2018-05-18T17:42:38.825Z,3.80
2018-05-18T17:45:07.056Z,3.70
2018-05-18T17:47:35.306Z,3.80
2018-05-18T17:50:03.558Z,3.47
2018-05-18T17:52:31.810Z,3.60
2018-05-18T17:55:00.059Z,4.12
2018-05-18T17:57:28.327Z,4.03
2018-05-18T17:59:56.580Z,3.77
2018-05-18T18:02:24.844Z,4.17
2018-05-18T18:04:53.098Z,4.50
2018-05-18T18:07:21.353Z,4.23
2018-05-18T18:09:49.618Z,4.50
2018-05-18T18:12:17.888Z,4.60
2018-05-18T18:14:46.155Z,4.77
2018-05-18T18:17:14.418Z,4.90
2018-05-18T18:19:43.610Z,7.27
2018-05-18T18:22:11.862Z,4.73
2018-05-18T18:24:40.119Z,5.70
2018-05-18T18:27:08.379Z,4.90
2018-05-18T18:29:36.623Z,4.83
2018-05-18T18:32:04.883Z,5.20
2018-05-18T18:34:33.142Z,4.30
2018-05-18T18:37:01.500Z,4.63
2018-05-18T18:39:29.760Z,4.60
2018-05-18T18:41:58.049Z,4.70
2018-05-18T18:44:26.315Z,4.47
2018-05-18T18:46:54.571Z,4.93
2018-05-18T18:49:22.818Z,4.70
2018-05-18T18:51:51.082Z,4.60
2018-05-18T18:54:19.331Z,5.37
2018-05-18T18:56:47.590Z,5.60
2018-05-18T18:59:15.840Z,6.17
2018-05-18T19:01:44.160Z,5.47
2018-05-18T19:04:12.402Z,5.63
2018-05-18T19:06:40.674Z,4.40
2018-05-18T19:09:08.922Z,4.73
2018-05-18T19:11:37.184Z,4.80
2018-05-18T19:14:05.436Z,4.53
2018-05-18T19:16:33.695Z,4.90
2018-05-18T19:19:01.955Z,4.47
2018-05-18T19:21:30.667Z,5.80
2018-05-18T19:23:58.914Z,4.80
2018-05-18T19:26:27.178Z,5.75
2018-05-18T19:28:55.435Z,4.90
2018-05-18T19:31:23.703Z,4.80
2018-05-18T19:33:51.953Z,5.00
2018-05-18T19:36:20.210Z,4.90
2018-05-18T19:38:48.476Z,4.57
2018-05-18T19:41:16.726Z,4.50
2018-05-18T19:43:45.000Z,4.83
2018-05-18T19:46:13.252Z,4.97
2018-05-18T19:48:41.506Z,5.10
2018-05-18T19:51:09.795Z,5.00
2018-05-18T19:53:38.059Z,5.47
2018-05-18T19:56:06.315Z,5.00
2018-05-18T19:58:34.571Z,5.72
2018-05-18T20:01:02.827Z,5.50
2018-05-18T20:03:31.107Z,6.23
2018-05-18T20:05:59.342Z,5.83
2018-05-18T20:08:27.599Z,6.23
2018-05-18T20:10:55.846Z,5.60
2018-05-18T20:13:24.110Z,6.50
2018-05-18T20:15:52.355Z,6.37
2018-05-18T20:18:20.622Z,6.43
2018-05-18T20:20:48.869Z,6.28
2018-05-18T20:23:17.894Z,6.78
2018-05-18T20:25:46.148Z,6.77
2018-05-18T20:28:14.418Z,6.33
2018-05-18T20:30:42.723Z,6.57
2018-05-18T20:33:10.995Z,6.43
2018-05-18T20:35:39.260Z,6.80
2018-05-18T20:38:07.541Z,6.87
2018-05-18T20:40:36.540Z,6.93
2018-05-18T20:43:04.803Z,6.70
2018-05-18T20:45:33.055Z,6.80
2018-05-18T20:48:01.315Z,6.87
2018-05-18T20:50:29.579Z,5.97
2018-05-18T20:52:57.838Z,6.80
2018-05-18T20:55:26.094Z,6.13
2018-05-18T20:57:54.362Z,5.70
2018-05-18T21:00:22.680Z,5.67
2018-05-18T21:02:50.945Z,5.70
2018-05-18T21:05:19.196Z,6.30
2018-05-18T21:07:47.459Z,6.13
2018-05-18T21:10:15.711Z,6.33
2018-05-18T21:12:43.971Z,6.13
2018-05-18T21:15:12.233Z,6.80
2018-05-18T21:17:40.495Z,7.33
2018-05-18T21:20:08.750Z,6.77
2018-05-18T21:22:37.048Z,6.60
2018-05-18T21:25:05.954Z,6.72
2018-05-18T21:27:34.196Z,6.90
2018-05-18T21:30:02.466Z,7.07
2018-05-18T21:32:30.731Z,7.07
2018-05-18T21:34:59.005Z,6.80
2018-05-18T21:37:27.254Z,7.80
2018-05-18T21:39:55.516Z,8.23
2018-05-18T21:42:23.772Z,8.07
2018-05-18T21:44:52.031Z,8.23
2018-05-18T21:47:20.288Z,8.57
2018-05-18T21:49:48.583Z,7.43
2018-05-18T21:52:16.843Z,7.62
2018-05-18T21:54:45.116Z,7.40
2018-05-18T21:57:13.366Z,7.50
2018-05-18T21:59:41.631Z,7.43
2018-05-18T22:02:09.879Z,6.60
2018-05-18T22:04:38.144Z,6.53
2018-05-18T22:07:06.398Z,7.20
2018-05-18T22:09:34.669Z,7.30
2018-05-18T22:12:02.922Z,7.63
2018-05-18T22:17:29.500Z,6.67
2018-05-18T22:19:57.746Z,7.60
2018-05-18T22:22:25.991Z,7.30
2018-05-18T22:24:54.239Z,8.20
2018-05-18T22:27:22.487Z,8.73
2018-05-18T22:29:50.749Z,9.53
2018-05-18T22:32:18.990Z,10.57
2018-05-18T22:34:47.350Z,10.10
2018-05-18T22:37:15.598Z,9.37
2018-05-18T22:39:43.859Z,8.63
2018-05-18T22:42:12.104Z,8.10
2018-05-18T22:44:40.362Z,8.67
2018-05-18T22:47:08.607Z,8.40
2018-05-18T22:49:36.890Z,8.27
2018-05-18T22:52:05.134Z,7.67
2018-05-18T22:54:33.390Z,8.70
2018-05-18T22:57:01.658Z,8.65
2018-05-18T22:59:29.898Z,8.83
2018-05-18T23:01:58.146Z,7.43
2018-05-18T23:04:26.406Z,8.63
2018-05-18T23:06:54.666Z,8.67
2018-05-18T23:09:23.014Z,9.10
2018-05-18T23:11:51.167Z,8.90
2018-05-18T23:14:19.442Z,10.20
2018-05-18T23:16:47.710Z,9.60
2018-05-18T23:19:15.963Z,9.73
2018-05-18T23:21:44.204Z,9.27
2018-05-18T23:24:12.456Z,10.03
2018-05-18T23:26:40.732Z,10.20
2018-05-18T23:29:08.998Z,10.07
2018-05-18T23:31:37.295Z,10.20
2018-05-18T23:34:05.603Z,10.87
2018-05-18T23:36:33.863Z,8.90
2018-05-18T23:39:03.012Z,10.65
2018-05-18T23:41:32.031Z,9.87
2018-05-18T23:44:00.271Z,9.97
2018-05-18T23:46:29.287Z,10.77
2018-05-18T23:48:57.553Z,10.43
2018-05-18T23:51:25.790Z,8.90
2018-05-18T23:53:54.052Z,8.60
2018-05-18T23:56:22.303Z,9.20
2018-05-18T23:58:50.555Z,9.97
